Time;durP1;ratioP1;P1;durP2;ratioP2;P2;SDS_P1;SDS_P2;PMS_P1;PMS_P2;Temp;Humidity;BMP_temperature;BMP_pressure;BME280_temperature;BME280_humidity;BME280_pressure;Samples;Min_cycle;Max_cycle;Signal;HPM_P1;HPM_P2
2021/12/11 00:01:47;;;;;;;3.00;1.80;;;1.80;98.00;;;;;;5012240;28;20026;-78
2021/12/11 00:04:17;;;;;;;5.05;1.90;;;1.80;98.00;;;;;;5008724;28;20133;-77
2021/12/11 00:06:47;;;;;;;4.35;1.67;;;1.80;98.00;;;;;;5012703;28;20026;-78
2021/12/11 00:09:33;;;;;;;3.40;1.77;;;1.80;98.00;;;;;;5011813;28;20026;-78
2021/12/11 00:12:13;;;;;;;4.00;1.73;;;1.80;98.00;;;;;;5019078;28;20049;-78
2021/12/11 00:14:42;;;;;;;3.13;1.73;;;1.80;98.00;;;;;;5016708;28;20710;-78
2021/12/11 00:17:08;;;;;;;3.13;1.73;;;1.80;98.00;;;;;;5017221;28;20040;-78
2021/12/11 00:19:37;;;;;;;5.82;1.90;;;1.80;98.00;;;;;;5018465;28;20025;-78
2021/12/11 00:22:15;;;;;;;3.75;1.83;;;1.80;98.00;;;;;;5015937;28;20026;-77
2021/12/11 00:24:41;;;;;;;4.38;2.05;;;1.70;98.00;;;;;;5016449;28;20084;-78
2021/12/11 00:27:16;;;;;;;5.18;1.83;;;1.80;98.00;;;;;;5018028;28;20026;-78
2021/12/11 00:29:42;;;;;;;5.13;1.73;;;1.80;98.00;;;;;;5017443;28;20513;-77
2021/12/11 00:32:21;;;;;;;4.63;1.75;;;1.80;98.00;;;;;;5015381;28;20438;-78
2021/12/11 00:34:47;;;;;;;3.78;1.50;;;1.80;98.00;;;;;;5016428;28;20034;-79
2021/12/11 00:37:17;;;;;;;3.28;1.70;;;1.80;98.00;;;;;;5015829;28;20025;-79
2021/12/11 00:39:54;;;;;;;3.25;1.60;;;1.90;98.00;;;;;;5015360;28;20431;-78
2021/12/11 00:42:23;;;;;;;3.42;1.67;;;1.90;98.00;;;;;;5021379;28;20120;-79
2021/12/11 00:44:52;;;;;;;5.38;1.65;;;1.90;98.00;;;;;;5018673;28;20037;-78
2021/12/11 00:47:22;;;;;;;3.53;1.75;;;1.90;98.00;;;;;;5017947;28;20054;-78
2021/12/11 00:50:08;;;;;;;4.68;1.50;;;1.90;98.00;;;;;;5017882;28;20050;-78
2021/12/11 00:52:44;;;;;;;3.10;1.58;;;1.90;98.00;;;;;;5007089;28;20034;-78
2021/12/11 00:55:21;;;;;;;4.38;1.58;;;2.00;98.00;;;;;;5017033;28;20053;-78
2021/12/11 00:57:49;;;;;;;4.95;1.60;;;2.00;98.00;;;;;;5014085;28;20431;-77
2021/12/11 01:00:20;;;;;;;4.97;1.88;;;2.00;98.00;;;;;;5016264;28;20041;-77
2021/12/11 01:02:49;;;;;;;2.85;1.42;;;2.00;98.00;;;;;;5017801;28;20045;-77
2021/12/11 01:05:15;;;;;;;6.03;1.73;;;2.00;98.00;;;;;;5017242;28;20415;-77
2021/12/11 01:07:41;;;;;;;3.00;1.80;;;2.00;98.00;;;;;;5015533;28;20034;-78
2021/12/11 01:10:25;;;;;;;4.78;2.15;;;2.00;98.00;;;;;;5018613;28;20026;-79
2021/12/11 01:13:00;;;;;;;2.47;1.42;;;2.00;98.00;;;;;;5017781;28;20060;-78
2021/12/11 01:15:32;;;;;;;3.80;2.10;;;2.00;98.00;;;;;;5017840;28;20309;-79
2021/12/11 01:27:03;;;;;;;6.72;1.90;;;2.10;98.00;;;;;;5018266;28;20041;-78
2021/12/11 01:29:30;;;;;;;3.33;1.70;;;2.00;98.00;;;;;;5016689;28;20042;-78
2021/12/11 01:31:57;;;;;;;4.22;1.65;;;2.00;98.00;;;;;;5014680;28;20029;-77
2021/12/11 01:34:25;;;;;;;3.38;1.60;;;2.00;98.00;;;;;;5016880;28;20021;-79
2021/12/11 01:36:52;;;;;;;3.17;1.65;;;2.00;98.00;;;;;;5016243;28;20343;-78
2021/12/11 01:39:22;;;;;;;2.53;1.45;;;2.10;98.00;;;;;;5016099;28;20022;-78
2021/12/11 01:41:50;;;;;;;5.15;1.77;;;2.10;98.00;;;;;;5016778;28;20030;-79
2021/12/11 01:44:29;;;;;;;3.97;2.00;;;2.00;98.00;;;;;;5017415;28;20137;-79
2021/12/11 01:47:18;;;;;;;4.07;1.50;;;2.00;98.00;;;;;;5017316;28;20030;-79
2021/12/11 01:49:47;;;;;;;3.67;1.50;;;2.00;98.00;;;;;;5014241;28;20033;-78
2021/12/11 01:52:31;;;;;;;3.70;1.70;;;2.10;98.00;;;;;;5014701;28;20168;-78
2021/12/11 01:54:57;;;;;;;2.97;1.50;;;2.10;98.00;;;;;;5017388;28;20093;-79
2021/12/11 01:57:29;;;;;;;3.42;1.50;;;2.00;98.00;;;;;;5016429;28;20029;-78
2021/12/11 02:00:14;;;;;;;3.25;1.65;;;2.00;98.00;;;;;;5016190;28;20112;-78
2021/12/11 02:02:48;;;;;;;4.97;1.52;;;2.00;98.00;;;;;;5016319;28;20022;-77
2021/12/11 02:05:19;;;;;;;3.03;1.50;;;2.00;98.00;;;;;;5017020;28;20053;-79
2021/12/11 02:07:49;;;;;;;2.90;1.40;;;2.00;98.00;;;;;;5014930;28;20122;-79
2021/12/11 02:10:29;;;;;;;2.88;1.40;;;2.00;98.00;;;;;;5015440;28;20041;-78
2021/12/11 02:12:57;;;;;;;3.45;1.60;;;2.10;98.00;;;;;;5017416;28;20022;-79
2021/12/11 02:15:33;;;;;;;4.00;1.60;;;2.00;98.00;;;;;;5016811;28;20431;-79
2021/12/11 02:18:21;;;;;;;3.67;1.35;;;2.10;98.00;;;;;;5016669;28;20383;-78
2021/12/11 02:20:58;;;;;;;3.83;1.60;;;2.10;98.00;;;;;;5016753;28;20034;-79
2021/12/11 02:23:25;;;;;;;2.92;1.60;;;2.00;98.00;;;;;;5015005;28;20022;-80
2021/12/11 02:25:54;;;;;;;2.35;1.40;;;2.00;98.00;;;;;;5016690;28;20111;-78
2021/12/11 02:28:31;;;;;;;4.45;1.52;;;2.00;98.00;;;;;;5016554;28;20088;-78
2021/12/11 02:31:06;;;;;;;3.05;1.50;;;2.00;98.00;;;;;;5016326;28;20331;-79
2021/12/11 02:33:41;;;;;;;3.45;1.60;;;2.00;98.00;;;;;;5015330;28;20030;-79
2021/12/11 02:36:11;;;;;;;3.88;1.65;;;1.90;98.00;;;;;;5013470;28;20022;-79
2021/12/11 02:38:51;;;;;;;3.80;1.60;;;1.90;98.00;;;;;;5014643;28;20026;-78
2021/12/11 02:41:23;;;;;;;2.90;1.50;;;1.90;98.00;;;;;;5015381;28;20029;-79
2021/12/11 02:43:54;;;;;;;3.33;1.80;;;1.90;98.00;;;;;;5016271;28;20041;-79
2021/12/11 02:46:43;;;;;;;3.50;1.85;;;1.90;98.00;;;;;;5015565;28;20447;-79
2021/12/11 02:49:21;;;;;;;4.57;1.70;;;1.90;98.00;;;;;;5015499;28;20401;-79
2021/12/11 02:51:58;;;;;;;3.78;2.10;;;1.90;98.00;;;;;;5015796;28;20021;-79
2021/12/11 02:54:28;;;;;;;4.20;1.52;;;1.90;98.00;;;;;;5014429;28;20037;-79
2021/12/11 02:57:05;;;;;;;3.75;2.00;;;1.90;98.00;;;;;;5015170;28;20030;-79
2021/12/11 02:59:39;;;;;;;3.92;1.75;;;1.90;98.00;;;;;;4996931;28;20054;-79
2021/12/11 03:02:11;;;;;;;2.87;1.50;;;1.90;98.00;;;;;;5014544;28;20319;-79
2021/12/11 03:04:46;;;;;;;4.18;1.80;;;1.90;98.00;;;;;;5015346;28;20281;-79
2021/12/11 03:07:14;;;;;;;4.50;2.10;;;1.90;98.00;;;;;;5014514;28;20029;-78
2021/12/11 03:09:45;;;;;;;2.60;1.60;;;1.90;98.00;;;;;;5015595;28;20029;-78
2021/12/11 03:12:13;;;;;;;5.57;1.80;;;1.90;98.00;;;;;;5014935;28;20057;-79
2021/12/11 03:14:41;;;;;;;3.45;1.70;;;1.90;98.00;;;;;;5016471;28;20370;-79
2021/12/11 03:17:07;;;;;;;6.07;1.90;;;1.90;98.00;;;;;;5015679;28;20036;-79
2021/12/11 03:19:36;;;;;;;3.42;1.60;;;1.90;98.00;;;;;;5016164;28;20029;-78
2021/12/11 03:22:05;;;;;;;3.60;1.70;;;1.90;98.00;;;;;;5014914;28;20041;-77
2021/12/11 03:24:35;;;;;;;2.92;1.67;;;1.90;98.00;;;;;;5023299;28;20025;-79
2021/12/11 03:27:02;;;;;;;3.83;1.88;;;1.90;98.00;;;;;;5017837;28;20030;-78
2021/12/11 03:29:29;;;;;;;5.95;2.00;;;1.90;98.00;;;;;;5014494;28;20309;-78
2021/12/11 03:31:54;;;;;;;3.95;2.08;;;1.80;98.00;;;;;;5015629;28;20037;-81
2021/12/11 03:34:25;;;;;;;4.70;2.10;;;1.70;98.00;;;;;;5015557;28;20025;-79
2021/12/11 03:36:52;;;;;;;3.13;1.63;;;1.70;98.00;;;;;;5013906;28;20231;-79
2021/12/11 03:39:28;;;;;;;2.83;1.60;;;1.70;98.00;;;;;;5014880;28;20304;-79
2021/12/11 03:41:55;;;;;;;7.63;2.58;;;1.70;98.00;;;;;;5015601;28;20154;-79
2021/12/11 03:44:22;;;;;;;3.80;1.90;;;1.70;98.00;;;;;;5015422;28;20582;-79
2021/12/11 03:46:53;;;;;;;2.92;1.65;;;1.70;98.00;;;;;;5009640;28;20030;-79
2021/12/11 03:49:22;;;;;;;3.80;2.03;;;1.70;98.00;;;;;;5015851;28;20050;-78
2021/12/11 03:51:49;;;;;;;3.85;1.90;;;1.60;98.00;;;;;;5014274;28;20410;-79
2021/12/11 03:54:23;;;;;;;4.55;1.92;;;1.70;98.00;;;;;;5012391;28;20041;-78
2021/12/11 03:56:49;;;;;;;4.15;1.90;;;1.60;98.00;;;;;;5015191;28;20096;-78
2021/12/11 03:59:18;;;;;;;4.97;1.90;;;1.70;98.00;;;;;;5020007;28;20071;-78
2021/12/11 04:01:58;;;;;;;2.90;1.80;;;1.60;98.00;;;;;;5017516;28;20029;-80
2021/12/11 04:05:06;;;;;;;5.63;1.90;;;1.60;98.00;;;;;;5015526;28;20026;-80
2021/12/11 04:07:37;;;;;;;3.67;1.92;;;1.60;98.00;;;;;;4982014;28;20465;-79
2021/12/11 04:10:07;;;;;;;3.65;2.00;;;1.60;98.00;;;;;;4993150;28;20023;-79
2021/12/11 04:12:33;;;;;;;5.13;2.60;;;1.60;98.00;;;;;;4996479;28;20037;-79
2021/12/11 04:14:59;;;;;;;4.45;2.10;;;1.60;98.00;;;;;;5015158;28;20022;-80
2021/12/11 04:17:27;;;;;;;4.32;2.35;;;1.60;98.00;;;;;;5015060;28;20030;-80
2021/12/11 04:19:56;;;;;;;4.13;2.25;;;1.60;98.00;;;;;;5015138;28;20466;-80
2021/12/11 04:22:24;;;;;;;4.95;2.00;;;1.60;98.00;;;;;;5013946;28;20026;-79
2021/12/11 04:24:50;;;;;;;3.83;1.90;;;1.60;98.00;;;;;;5014121;28;20030;-79
2021/12/11 04:27:19;;;;;;;3.42;2.08;;;1.60;98.00;;;;;;5015446;28;20022;-79
2021/12/11 04:29:48;;;;;;;4.35;1.90;;;1.60;98.00;;;;;;5014535;28;20148;-80
2021/12/11 04:32:14;;;;;;;3.38;1.90;;;1.60;98.00;;;;;;5014605;28;20108;-79
2021/12/11 04:34:43;;;;;;;4.28;1.90;;;1.60;98.00;;;;;;5015509;28;20104;-79
2021/12/11 04:37:15;;;;;;;5.22;2.13;;;1.60;98.00;;;;;;5013251;28;20037;-78
2021/12/11 04:39:45;;;;;;;4.13;1.83;;;1.60;98.00;;;;;;5014993;28;20037;-80
2021/12/11 04:42:23;;;;;;;3.35;1.80;;;1.50;98.00;;;;;;5013950;28;20108;-79
2021/12/11 04:44:49;;;;;;;3.28;1.88;;;1.60;98.00;;;;;;5015010;28;20433;-79
2021/12/11 04:47:30;;;;;;;4.00;2.13;;;1.60;98.00;;;;;;5013830;28;20029;-79
2021/12/11 04:50:05;;;;;;;5.60;2.45;;;1.50;98.00;;;;;;5010032;28;20414;-78
2021/12/11 04:52:52;;;;;;;3.28;1.90;;;1.50;98.00;;;;;;5013723;28;20501;-78
2021/12/11 05:06:16;;;;;;;6.30;2.72;;;1.20;98.00;;;;;;5018313;28;20022;-78
2021/12/11 05:11:13;;;;;;;5.82;3.38;;;1.00;97.80;;;;;;5001847;28;20042;-79
2021/12/11 05:13:40;;;;;;;5.57;3.17;;;0.80;97.10;;;;;;5018706;28;20018;-78
2021/12/11 05:16:12;;;;;;;5.68;3.17;;;0.70;96.40;;;;;;5012693;28;20054;-78
2021/12/11 05:18:41;;;;;;;6.20;3.50;;;0.70;94.90;;;;;;5016745;28;20030;-77
2021/12/11 05:21:11;;;;;;;5.97;3.70;;;0.70;94.60;;;;;;5013406;28;20026;-77
2021/12/11 05:23:40;;;;;;;6.47;4.18;;;0.70;94.70;;;;;;5015508;28;21482;-78
2021/12/11 05:26:06;;;;;;;9.05;5.50;;;0.70;94.30;;;;;;5015634;28;20101;-79
2021/12/11 05:28:32;;;;;;;8.88;5.63;;;0.70;94.40;;;;;;5013504;28;20134;-79
2021/12/11 05:31:01;;;;;;;6.40;4.00;;;0.70;94.10;;;;;;5008258;28;20030;-76
2021/12/11 05:33:27;;;;;;;6.53;3.80;;;0.70;93.60;;;;;;5018010;28;20113;-79
2021/12/11 05:35:54;;;;;;;7.70;4.63;;;0.70;93.70;;;;;;5016206;28;20110;-78
2021/12/11 05:38:23;;;;;;;7.53;3.97;;;0.70;93.80;;;;;;5016858;28;20036;-78
2021/12/11 05:40:53;;;;;;;8.50;4.93;;;0.70;93.60;;;;;;5016732;28;20034;-79
2021/12/11 05:43:19;;;;;;;7.75;5.10;;;0.70;93.70;;;;;;5016778;28;20033;-79
2021/12/11 05:45:46;;;;;;;8.65;4.60;;;0.70;93.80;;;;;;5017099;28;20164;-77
2021/12/11 05:48:13;;;;;;;6.60;4.13;;;0.60;94.00;;;;;;5017069;28;20030;-79
2021/12/11 05:50:46;;;;;;;7.45;4.47;;;0.60;93.80;;;;;;5016761;28;20411;-79
2021/12/11 05:53:14;;;;;;;8.88;5.72;;;0.60;93.70;;;;;;5015958;28;20473;-79
2021/12/11 05:55:41;;;;;;;7.95;4.85;;;0.60;93.90;;;;;;5017001;28;20030;-79
2021/12/11 05:58:13;;;;;;;8.35;5.35;;;0.60;93.80;;;;;;5017120;28;20084;-79
2021/12/11 06:00:44;;;;;;;6.28;4.28;;;0.60;93.50;;;;;;5015555;28;20038;-78
2021/12/11 06:03:12;;;;;;;7.75;5.25;;;0.60;93.70;;;;;;5016601;28;20426;-78
2021/12/11 06:05:38;;;;;;;7.57;5.50;;;0.60;93.90;;;;;;5016551;28;20041;-79
2021/12/11 06:08:05;;;;;;;8.75;6.28;;;0.50;93.80;;;;;;5014802;28;20068;-79
2021/12/11 06:10:31;;;;;;;8.27;6.10;;;0.50;94.00;;;;;;5015511;28;20040;-78
2021/12/11 06:12:59;;;;;;;9.65;7.22;;;0.60;93.90;;;;;;5016796;28;20022;-79
2021/12/11 06:15:25;;;;;;;12.38;8.52;;;0.60;94.00;;;;;;5008658;28;20025;-78
2021/12/11 06:17:51;;;;;;;12.48;8.10;;;0.60;93.80;;;;;;5015691;28;20054;-78
2021/12/11 06:20:21;;;;;;;12.57;8.57;;;0.60;93.80;;;;;;5015388;28;20123;-79
2021/12/11 06:22:47;;;;;;;13.18;8.10;;;0.60;93.70;;;;;;5012735;28;20029;-78
2021/12/11 06:25:20;;;;;;;11.05;7.53;;;0.70;93.30;;;;;;5015191;28;20029;-79
2021/12/11 06:27:47;;;;;;;10.30;7.40;;;0.70;92.90;;;;;;5015493;28;20053;-79
2021/12/11 06:30:14;;;;;;;15.02;7.40;;;0.70;93.10;;;;;;5015319;28;20026;-79
2021/12/11 06:32:41;;;;;;;10.77;7.88;;;0.70;92.30;;;;;;5020445;28;20026;-78
2021/12/11 06:35:14;;;;;;;11.90;7.65;;;0.70;92.10;;;;;;5014374;28;20033;-78
2021/12/11 06:37:40;;;;;;;11.48;7.35;;;0.70;92.70;;;;;;5013971;28;20040;-78
2021/12/11 06:40:07;;;;;;;8.85;6.45;;;0.70;92.20;;;;;;5014442;28;20034;-78
2021/12/11 06:42:33;;;;;;;11.98;7.07;;;0.70;92.40;;;;;;5005508;28;20047;-76
2021/12/11 06:44:59;;;;;;;10.88;6.57;;;0.70;92.60;;;;;;5008229;28;20022;-76
2021/12/11 06:47:24;;;;;;;8.63;5.45;;;0.70;92.80;;;;;;5012505;28;20304;-77
2021/12/11 06:49:50;;;;;;;9.73;6.80;;;0.60;94.30;;;;;;5015502;28;20064;-76
2021/12/11 06:52:20;;;;;;;10.15;7.30;;;0.60;94.40;;;;;;5015148;28;20453;-76
2021/12/11 06:54:47;;;;;;;8.98;6.75;;;0.60;95.00;;;;;;5015407;28;20426;-76
2021/12/11 06:57:13;;;;;;;11.85;8.35;;;0.60;95.00;;;;;;5016651;28;20096;-77
2021/12/11 06:59:39;;;;;;;10.43;7.57;;;0.60;95.20;;;;;;5015295;28;20026;-76
2021/12/11 07:02:05;;;;;;;11.27;7.63;;;0.60;95.30;;;;;;5016720;28;20033;-76
2021/12/11 07:04:31;;;;;;;11.73;8.25;;;0.60;95.70;;;;;;5015267;28;20038;-76
2021/12/11 07:06:57;;;;;;;9.10;7.10;;;0.60;95.90;;;;;;5016019;28;20026;-76
2021/12/11 07:09:26;;;;;;;9.98;7.07;;;0.60;95.70;;;;;;5015768;28;20025;-75
2021/12/11 07:11:53;;;;;;;8.70;6.05;;;0.60;95.60;;;;;;5015288;28;20026;-74
2021/12/11 07:14:22;;;;;;;11.07;8.00;;;0.60;96.10;;;;;;5015349;28;20288;-74
2021/12/11 07:16:48;;;;;;;13.10;9.32;;;0.60;96.10;;;;;;5014838;28;20128;-75
2021/12/11 07:19:18;;;;;;;15.15;10.07;;;0.60;96.20;;;;;;5015194;28;20029;-76
2021/12/11 07:21:46;;;;;;;19.23;12.80;;;0.60;96.20;;;;;;5016165;28;20029;-75
2021/12/11 07:24:15;;;;;;;13.82;10.65;;;0.50;96.10;;;;;;5014265;28;20022;-77
2021/12/11 07:26:41;;;;;;;15.50;11.20;;;0.50;95.90;;;;;;5011729;28;20033;-76
2021/12/11 07:29:08;;;;;;;11.88;9.43;;;0.50;95.90;;;;;;5016181;28;20308;-76
2021/12/11 07:31:35;;;;;;;12.70;10.00;;;0.50;96.10;;;;;;5015100;28;20374;-77
2021/12/11 07:34:01;;;;;;;13.30;10.70;;;0.50;96.20;;;;;;5014204;28;20346;-77
2021/12/11 07:36:27;;;;;;;23.02;14.18;;;0.50;96.50;;;;;;5014284;28;20022;-76
2021/12/11 07:38:54;;;;;;;16.77;10.60;;;0.50;96.30;;;;;;5014232;28;20029;-76
2021/12/11 07:41:20;;;;;;;16.58;11.35;;;0.50;96.10;;;;;;5015930;28;20037;-76
2021/12/11 07:43:48;;;;;;;20.33;13.40;;;0.50;96.50;;;;;;5005166;28;20040;-76
2021/12/11 07:46:21;;;;;;;17.08;12.45;;;0.50;96.50;;;;;;4996474;28;20431;-76
2021/12/11 07:48:48;;;;;;;16.80;11.43;;;0.50;96.70;;;;;;4996462;28;20041;-77
2021/12/11 07:51:15;;;;;;;14.90;10.90;;;0.50;96.80;;;;;;5006929;28;20058;-77
2021/12/11 07:53:41;;;;;;;23.08;16.08;;;0.50;96.70;;;;;;5014747;28;20022;-76
2021/12/11 07:56:08;;;;;;;15.43;10.77;;;0.50;97.00;;;;;;5015898;28;20033;-76
2021/12/11 07:58:35;;;;;;;12.35;7.15;;;0.50;97.10;;;;;;5016069;28;20026;-76
2021/12/11 08:01:04;;;;;;;15.18;9.82;;;0.50;97.40;;;;;;5010912;28;20030;-76
2021/12/11 08:03:29;;;;;;;21.08;13.68;;;0.50;97.50;;;;;;5014922;28;20034;-76
2021/12/11 08:05:55;;;;;;;21.23;14.10;;;0.50;97.40;;;;;;5014522;28;20045;-77
2021/12/11 08:08:23;;;;;;;10.93;8.48;;;0.60;97.30;;;;;;5013392;28;20450;-77
2021/12/11 08:10:52;;;;;;;12.43;10.10;;;0.50;97.70;;;;;;5014413;28;20026;-76
2021/12/11 08:13:18;;;;;;;12.10;8.85;;;0.50;97.30;;;;;;5014108;28;20444;-77
2021/12/11 08:15:44;;;;;;;13.10;9.75;;;0.50;97.10;;;;;;5013008;28;20026;-76
2021/12/11 08:18:12;;;;;;;17.17;10.10;;;0.50;97.40;;;;;;5024840;28;20025;-76
2021/12/11 08:20:40;;;;;;;14.23;8.45;;;0.50;97.30;;;;;;5015366;28;20345;-77
2021/12/11 08:23:06;;;;;;;13.25;10.13;;;0.50;97.00;;;;;;5013199;28;20030;-77
2021/12/11 08:25:34;;;;;;;12.70;8.98;;;0.50;96.90;;;;;;5014946;28;20052;-76
2021/12/11 08:28:00;;;;;;;13.85;10.93;;;0.50;97.00;;;;;;5015043;28;20041;-77
2021/12/11 08:30:29;;;;;;;15.05;12.13;;;0.60;96.80;;;;;;5014191;28;20018;-77
2021/12/11 08:32:55;;;;;;;21.83;16.42;;;0.60;96.60;;;;;;5018103;28;20465;-77
2021/12/11 08:35:21;;;;;;;16.88;13.55;;;0.60;96.30;;;;;;5018807;28;20025;-76
2021/12/11 08:37:50;;;;;;;20.67;13.75;;;0.60;96.30;;;;;;5017914;28;20030;-77
2021/12/11 08:40:22;;;;;;;23.63;16.63;;;0.60;96.10;;;;;;5018588;28;20046;-77
2021/12/11 08:42:49;;;;;;;23.02;16.48;;;0.60;96.50;;;;;;5033385;28;20387;-76
2021/12/11 08:45:22;;;;;;;28.90;18.67;;;0.60;96.10;;;;;;5018696;28;20026;-77
2021/12/11 08:47:51;;;;;;;25.52;17.00;;;0.60;96.20;;;;;;5033816;28;20030;-76
2021/12/11 08:50:20;;;;;;;25.95;16.60;;;0.60;96.00;;;;;;5017694;28;20034;-77
2021/12/11 08:52:49;;;;;;;23.55;16.08;;;0.60;96.40;;;;;;5016365;28;20050;-76
2021/12/11 08:55:29;;;;;;;19.92;13.80;;;0.60;95.90;;;;;;5018922;28;20033;-76
2021/12/11 08:57:55;;;;;;;16.98;12.13;;;0.60;96.10;;;;;;5010627;28;20030;-75
2021/12/11 09:00:52;;;;;;;29.05;18.52;;;0.60;95.80;;;;;;5016131;28;20022;-77
2021/12/11 09:03:38;;;;;;;22.08;15.93;;;0.60;95.70;;;;;;5018168;28;20041;-77
2021/12/11 09:06:15;;;;;;;17.65;12.00;;;0.60;95.70;;;;;;5017749;28;20041;-76
2021/12/11 09:08:50;;;;;;;13.82;9.63;;;0.60;95.70;;;;;;5016878;28;20423;-75
2021/12/11 09:11:24;;;;;;;16.10;11.75;;;0.60;95.60;;;;;;5016484;28;20022;-77
2021/12/11 09:14:01;;;;;;;15.90;12.40;;;0.60;95.30;;;;;;5013977;28;20057;-76
2021/12/11 09:16:30;;;;;;;15.10;11.15;;;0.60;95.50;;;;;;5014592;28;20376;-77
2021/12/11 09:18:58;;;;;;;19.58;14.43;;;0.70;95.50;;;;;;5030947;28;20041;-76
2021/12/11 09:21:30;;;;;;;17.42;12.57;;;0.70;95.40;;;;;;5015460;28;20029;-77
2021/12/11 09:24:05;;;;;;;20.40;14.15;;;0.60;95.10;;;;;;5029500;28;20083;-76
2021/12/11 09:26:40;;;;;;;11.48;9.13;;;0.70;95.20;;;;;;5016131;28;20030;-76
2021/12/11 09:29:21;;;;;;;15.30;11.15;;;0.60;95.40;;;;;;5015335;28;20124;-77
2021/12/11 09:32:09;;;;;;;17.65;13.18;;;0.60;94.90;;;;;;5015302;28;20018;-78
2021/12/11 09:34:38;;;;;;;17.05;12.32;;;0.70;95.00;;;;;;5016372;28;20096;-77
2021/12/11 09:37:06;;;;;;;25.52;16.83;;;0.70;95.10;;;;;;5014916;28;20108;-77
2021/12/11 09:40:03;;;;;;;20.55;14.75;;;0.70;94.80;;;;;;5014621;28;20029;-76
2021/12/11 09:42:28;;;;;;;27.38;17.17;;;0.70;95.00;;;;;;5016972;28;20030;-76
2021/12/11 09:45:09;;;;;;;22.73;14.95;;;0.70;94.70;;;;;;5015888;28;20026;-76
2021/12/11 09:47:40;;;;;;;17.92;12.10;;;0.80;94.60;;;;;;5010906;28;20038;-76
2021/12/11 09:50:16;;;;;;;18.13;12.20;;;0.70;94.60;;;;;;5013348;28;20407;-77
2021/12/11 09:52:45;;;;;;;19.35;13.50;;;0.80;94.90;;;;;;5009526;28;20057;-77
2021/12/11 09:55:19;;;;;;;26.13;18.08;;;0.80;95.10;;;;;;5016137;28;20026;-78
2021/12/11 09:57:49;;;;;;;37.13;23.60;;;0.80;94.80;;;;;;5013513;28;20034;-77
2021/12/11 10:00:30;;;;;;;27.45;18.73;;;0.80;94.80;;;;;;5018536;28;20030;-77
2021/12/11 10:02:56;;;;;;;24.10;16.75;;;0.80;95.00;;;;;;5003603;28;20044;-76
2021/12/11 10:05:32;;;;;;;24.75;17.17;;;0.80;95.00;;;;;;5019386;28;20080;-75
2021/12/11 10:08:29;;;;;;;28.17;19.92;;;0.80;94.60;;;;;;5028218;28;20036;-75
2021/12/11 10:11:10;;;;;;;29.58;19.33;;;0.90;95.00;;;;;;5012902;28;20018;-76
2021/12/11 10:13:43;;;;;;;27.77;20.83;;;0.90;95.40;;;;;;5016725;28;20383;-75
2021/12/11 10:16:09;;;;;;;24.92;18.65;;;0.90;95.10;;;;;;5016109;28;20029;-78
2021/12/11 10:18:35;;;;;;;21.17;16.50;;;0.90;95.20;;;;;;5017049;28;20299;-77
2021/12/11 10:21:20;;;;;;;21.02;15.07;;;0.90;95.20;;;;;;5016338;28;20110;-77
2021/12/11 10:23:51;;;;;;;29.63;20.58;;;0.90;95.20;;;;;;5015671;28;20419;-77
2021/12/11 10:26:25;;;;;;;31.25;20.95;;;0.90;94.80;;;;;;5017271;28;20057;-76
2021/12/11 10:28:56;;;;;;;26.90;18.00;;;1.00;95.00;;;;;;5016930;28;20069;-77
2021/12/11 10:31:28;;;;;;;28.85;18.58;;;1.10;95.20;;;;;;5015976;28;20029;-77
2021/12/11 10:33:59;;;;;;;20.88;15.57;;;1.10;95.60;;;;;;5016838;28;20106;-76
2021/12/11 10:36:30;;;;;;;20.92;15.77;;;1.10;95.80;;;;;;5016952;28;20026;-77
2021/12/11 10:38:58;;;;;;;30.17;20.05;;;1.20;95.90;;;;;;5014859;28;20030;-76
2021/12/11 10:41:26;;;;;;;19.00;14.85;;;1.20;96.20;;;;;;5015311;28;20029;-76
2021/12/11 10:44:03;;;;;;;21.08;15.40;;;1.30;96.60;;;;;;5016020;28;20030;-77
2021/12/11 10:46:35;;;;;;;18.58;13.63;;;1.30;96.90;;;;;;5015457;28;20030;-77
2021/12/11 10:49:04;;;;;;;16.67;12.27;;;1.40;97.00;;;;;;5015042;28;20152;-76
2021/12/11 10:51:36;;;;;;;14.38;10.93;;;1.50;97.00;;;;;;5016848;28;20092;-77
2021/12/11 10:54:02;;;;;;;19.83;14.10;;;1.60;97.40;;;;;;5015431;28;20014;-78
2021/12/11 10:56:29;;;;;;;16.75;12.15;;;1.70;98.00;;;;;;5016800;28;20041;-78
2021/12/11 10:59:13;;;;;;;22.20;13.75;;;1.70;98.00;;;;;;5016788;28;20030;-77
2021/12/11 11:01:43;;;;;;;18.63;13.60;;;1.70;98.00;;;;;;5016727;28;20346;-76
2021/12/11 11:04:15;;;;;;;15.20;11.20;;;1.70;98.00;;;;;;5015610;28;20069;-77
2021/12/11 11:06:45;;;;;;;14.20;10.85;;;1.70;98.00;;;;;;5016624;28;20030;-77
2021/12/11 11:09:13;;;;;;;12.18;9.38;;;1.60;98.00;;;;;;5015121;28;20029;-76
2021/12/11 11:11:40;;;;;;;15.85;11.32;;;1.60;98.00;;;;;;5016163;28;20111;-77
2021/12/11 11:14:09;;;;;;;15.10;11.60;;;1.60;98.00;;;;;;5015389;28;20026;-77
2021/12/11 11:16:36;;;;;;;12.48;9.15;;;1.60;98.00;;;;;;5016485;28;20022;-77
2021/12/11 11:19:03;;;;;;;14.40;9.77;;;1.60;98.00;;;;;;5015906;28;20018;-76
2021/12/11 11:21:43;;;;;;;12.50;8.43;;;1.40;98.00;;;;;;5014938;28;20030;-77
2021/12/11 11:24:10;;;;;;;16.33;10.98;;;1.30;98.00;;;;;;5015137;28;20048;-76
2021/12/11 11:26:40;;;;;;;15.20;10.25;;;1.30;98.00;;;;;;5016339;28;20723;-77
2021/12/11 11:29:09;;;;;;;12.02;8.02;;;1.30;98.00;;;;;;5014761;28;20232;-76
2021/12/11 11:31:37;;;;;;;12.15;8.65;;;1.20;98.00;;;;;;4997693;28;20038;-78
2021/12/11 11:34:06;;;;;;;15.20;10.57;;;1.30;98.00;;;;;;4996566;28;20019;-76
2021/12/11 11:36:34;;;;;;;26.13;15.25;;;1.20;98.00;;;;;;4995463;28;20033;-77
2021/12/11 11:39:05;;;;;;;28.77;17.05;;;1.20;98.00;;;;;;4994293;28;20062;-77
2021/12/11 11:41:36;;;;;;;23.63;14.45;;;1.30;98.00;;;;;;5007414;28;20061;-80
2021/12/11 11:44:05;;;;;;;21.48;13.55;;;1.30;98.00;;;;;;5015082;28;20030;-77
2021/12/11 11:46:31;;;;;;;29.33;18.02;;;1.40;98.00;;;;;;5015657;28;20084;-76
2021/12/11 11:48:59;;;;;;;24.95;14.93;;;1.40;98.00;;;;;;5015695;28;20112;-77
2021/12/11 11:51:40;;;;;;;15.40;10.07;;;1.40;98.00;;;;;;5015959;28;20311;-78
2021/12/11 11:54:09;;;;;;;22.48;14.38;;;1.40;98.00;;;;;;5015058;28;20018;-77
2021/12/11 11:56:39;;;;;;;22.60;14.32;;;1.40;98.00;;;;;;5016233;28;20445;-77
2021/12/11 11:59:08;;;;;;;31.45;19.15;;;1.50;98.00;;;;;;5016002;28;20326;-78
2021/12/11 12:01:48;;;;;;;19.05;12.50;;;1.50;98.00;;;;;;5014435;28;20032;-76
2021/12/11 12:04:17;;;;;;;20.73;13.85;;;1.60;98.00;;;;;;5014916;28;20049;-77
2021/12/11 12:06:48;;;;;;;18.85;12.02;;;1.70;98.00;;;;;;5018551;28;20061;-76
2021/12/11 12:09:18;;;;;;;13.32;9.00;;;1.80;98.00;;;;;;5017740;28;20049;-77
2021/12/11 12:11:44;;;;;;;19.05;12.73;;;1.90;98.00;;;;;;5019798;28;20100;-77
2021/12/11 12:14:15;;;;;;;16.70;10.85;;;2.00;98.00;;;;;;5016289;28;20022;-77
2021/12/11 12:16:43;;;;;;;15.93;9.88;;;2.00;98.00;;;;;;5018278;28;20033;-78
2021/12/11 12:19:09;;;;;;;13.38;8.68;;;1.90;98.00;;;;;;5018520;28;20018;-76
2021/12/11 12:21:38;;;;;;;17.55;11.73;;;1.90;98.00;;;;;;5019219;28;20033;-77
2021/12/11 12:24:04;;;;;;;18.52;11.60;;;2.00;98.00;;;;;;5018418;28;20026;-77
2021/12/11 12:26:31;;;;;;;17.80;10.75;;;2.00;98.00;;;;;;5018073;28;20022;-77
2021/12/11 12:28:59;;;;;;;16.35;10.75;;;1.90;98.00;;;;;;5019390;28;20049;-76
2021/12/11 12:31:30;;;;;;;15.40;9.68;;;1.70;98.00;;;;;;5019231;28;20104;-77
2021/12/11 12:33:56;;;;;;;11.95;8.32;;;1.70;98.00;;;;;;5017890;28;20441;-78
2021/12/11 12:36:22;;;;;;;18.45;11.82;;;1.60;98.00;;;;;;5017326;28;20108;-77
2021/12/11 12:38:49;;;;;;;17.90;12.40;;;1.60;98.00;;;;;;5018174;28;20025;-77
2021/12/11 12:41:27;;;;;;;23.77;13.80;;;1.50;98.00;;;;;;5017963;28;20026;-77
2021/12/11 12:44:21;;;;;;;21.55;13.38;;;1.50;98.00;;;;;;5019336;28;20033;-77
2021/12/11 12:46:52;;;;;;;20.52;12.70;;;1.50;98.00;;;;;;5017765;28;20125;-77
2021/12/11 12:49:19;;;;;;;18.58;13.02;;;1.50;98.00;;;;;;5019133;28;20026;-78
2021/12/11 12:51:46;;;;;;;19.63;12.10;;;1.50;98.00;;;;;;5018673;28;20327;-77
2021/12/11 12:54:14;;;;;;;53.78;33.88;;;1.50;98.00;;;;;;5017755;28;20419;-77
2021/12/11 12:56:57;;;;;;;18.65;12.57;;;1.50;98.00;;;;;;5018592;28;20142;-77
2021/12/11 12:59:34;;;;;;;26.27;15.65;;;1.50;98.00;;;;;;5017944;28;20022;-75
2021/12/11 13:02:06;;;;;;;17.67;12.15;;;1.50;98.00;;;;;;5014998;28;20033;-75
2021/12/11 13:04:43;;;;;;;15.75;11.15;;;1.40;98.00;;;;;;5017030;28;20113;-75
2021/12/11 13:07:15;;;;;;;15.80;10.82;;;1.30;98.00;;;;;;5017607;28;20077;-75
2021/12/11 13:09:56;;;;;;;20.77;14.00;;;1.40;98.00;;;;;;5017403;28;20030;-76
2021/12/11 13:12:43;;;;;;;16.65;11.95;;;1.40;98.00;;;;;;5017518;28;20018;-77
2021/12/11 13:15:18;;;;;;;20.00;13.18;;;1.50;98.00;;;;;;5017980;28;20017;-78
2021/12/11 13:17:48;;;;;;;18.25;13.00;;;1.60;98.00;;;;;;5017567;28;20336;-77
2021/12/11 13:20:30;;;;;;;15.90;11.43;;;1.60;98.00;;;;;;5017400;28;20330;-77
2021/12/11 13:22:56;;;;;;;15.05;9.93;;;1.60;98.00;;;;;;4997770;28;20327;-78
2021/12/11 13:25:32;;;;;;;16.15;10.57;;;1.60;98.00;;;;;;5017802;28;20022;-77
2021/12/11 13:28:01;;;;;;;17.40;11.90;;;1.70;98.00;;;;;;5017081;28;20330;-76
2021/12/11 13:30:32;;;;;;;10.75;7.75;;;1.90;98.00;;;;;;5017517;28;20088;-76